Time;durP1;ratioP1;P1;durP2;ratioP2;P2;SDS_P1;SDS_P2;PMS_P1;PMS_P2;Temp;Humidity;BMP_temperature;BMP_pressure;BME280_temperature;BME280_humidity;BME280_pressure;Samples;Min_cycle;Max_cycle;Signal;HPM_P1;HPM_P2
2022/03/08 00:02:13;;;;;;;10.38;5.88;;;;;;;-2.86;100.00;102289.47;5087219;28;20103;-74
2022/03/08 00:04:39;;;;;;;10.82;5.43;;;;;;;-2.89;100.00;102293.94;5069078;28;20492;-74
2022/03/08 00:07:05;;;;;;;12.98;5.90;;;;;;;-2.92;100.00;102286.19;5087393;28;20442;-73
2022/03/08 00:09:30;;;;;;;;;;;;;;;-2.91;100.00;102280.06;5086102;28;20024;-73
2022/03/08 00:11:56;;;;;;;9.98;5.03;;;;;;;-2.94;100.00;102275.75;5087090;28;20180;-73
2022/03/08 00:14:21;;;;;;;10.88;5.47;;;;;;;-2.95;100.00;102283.63;5086826;28;20125;-73
2022/03/08 00:16:46;;;;;;;11.47;5.20;;;;;;;-3.03;100.00;102276.00;5087335;28;20527;-73
2022/03/08 00:19:12;;;;;;;13.90;5.35;;;;;;;-3.04;100.00;102279.50;5068410;28;20285;-73
2022/03/08 00:21:38;;;;;;;15.25;7.00;;;;;;;-3.08;100.00;102273.50;5068470;28;20413;-73
2022/03/08 00:24:04;;;;;;;13.65;5.80;;;;;;;-3.07;100.00;102279.56;5086823;28;20028;-73
2022/03/08 00:26:29;;;;;;;10.40;5.28;;;;;;;-3.06;100.00;102290.00;5085434;28;20036;-73
2022/03/08 00:28:55;;;;;;;10.43;4.97;;;;;;;-3.05;100.00;102294.31;5067948;28;20032;-73
2022/03/08 00:31:20;;;;;;;10.57;6.00;;;;;;;-3.04;100.00;102292.56;5068181;28;20020;-73
2022/03/08 00:33:45;;;;;;;10.50;5.45;;;;;;;-3.05;100.00;102294.31;5051664;28;20040;-73
2022/03/08 00:36:11;;;;;;;9.10;5.15;;;;;;;-3.05;100.00;102283.84;5051719;28;20036;-73
2022/03/08 00:38:36;;;;;;;11.50;5.70;;;;;;;-3.01;100.00;102287.28;5051504;28;20024;-73
2022/03/08 00:41:02;;;;;;;9.02;5.05;;;;;;;-3.06;100.00;102282.16;5067878;28;20154;-73
2022/03/08 00:43:28;;;;;;;11.80;5.68;;;;;;;-3.08;100.00;102275.25;5084869;28;20036;-73
2022/03/08 00:45:54;;;;;;;10.50;5.13;;;;;;;-3.00;100.00;102275.91;5084755;28;20097;-73
2022/03/08 00:48:20;;;;;;;9.05;5.57;;;;;;;-2.98;100.00;102282.81;5085009;28;20492;-73
2022/03/08 00:50:45;;;;;;;11.10;5.85;;;;;;;-3.09;100.00;102263.94;5067691;28;20084;-73
2022/03/08 00:53:12;;;;;;;11.55;6.00;;;;;;;-3.17;100.00;102257.19;5085975;28;20026;-73
2022/03/08 00:55:37;;;;;;;19.75;7.13;;;;;;;-3.17;100.00;102263.25;5068014;28;20405;-73
2022/03/08 00:58:04;;;;;;;12.23;6.55;;;;;;;-3.12;100.00;102265.75;5086091;28;20519;-73
2022/03/08 01:00:32;;;;;;;17.40;6.95;;;;;;;-3.21;100.00;102269.44;5051046;28;20020;-73
2022/03/08 01:02:59;;;;;;;13.02;6.78;;;;;;;-3.28;100.00;102260.03;5067713;28;20424;-73
2022/03/08 01:05:25;;;;;;;16.25;8.10;;;;;;;-3.28;100.00;102262.66;5085778;28;20043;-73
2022/03/08 01:07:51;;;;;;;16.63;7.63;;;;;;;-3.27;100.00;102265.22;5085612;28;20024;-73
2022/03/08 01:10:18;;;;;;;;;;;;;;;-3.28;100.00;102266.16;5051528;28;20498;-73
2022/03/08 01:12:45;;;;;;;15.73;8.63;;;;;;;-3.32;100.00;102263.66;5067232;28;19946;-73
2022/03/08 01:15:11;;;;;;;14.10;7.53;;;;;;;-3.28;100.00;102267.88;5051038;28;20024;-73
2022/03/08 01:17:40;;;;;;;19.00;8.00;;;;;;;-3.32;100.00;102267.09;5067596;28;20032;-73
2022/03/08 01:20:07;;;;;;;15.38;7.18;;;;;;;-3.38;100.00;102264.63;5067820;28;20055;-73
2022/03/08 01:22:35;;;;;;;20.10;7.70;;;;;;;-3.34;100.00;102262.81;5085412;28;20047;-73
2022/03/08 01:25:01;;;;;;;15.38;8.02;;;;;;;-3.37;100.00;102252.41;5067366;28;20032;-73
2022/03/08 01:27:26;;;;;;;14.13;7.97;;;;;;;-3.46;100.00;102249.16;5085420;28;20518;-73
2022/03/08 01:29:52;;;;;;;23.20;8.98;;;;;;;-3.49;100.00;102251.84;5067564;28;20567;-73
2022/03/08 01:32:18;;;;;;;16.75;8.63;;;;;;;-3.47;100.00;102241.34;5053691;28;20396;-73
2022/03/08 01:34:44;;;;;;;17.05;7.70;;;;;;;-3.45;100.00;102248.22;5088437;28;20036;-73
2022/03/08 01:37:11;;;;;;;13.20;6.78;;;;;;;-3.45;100.00;102258.69;5071480;28;20032;-73
2022/03/08 01:39:37;;;;;;;11.90;6.32;;;;;;;-3.47;100.00;102244.78;5071173;28;20032;-73
2022/03/08 01:42:15;;;;;;;15.82;7.93;;;;;;;-3.46;100.00;102243.91;5088125;28;20047;-73
2022/03/08 01:44:43;;;;;;;14.48;7.15;;;;;;;-3.48;100.00;102242.25;5071317;28;20336;-73
2022/03/08 01:47:15;;;;;;;16.10;7.22;;;;;;;-3.51;100.00;102237.97;5089596;28;20020;-73
2022/03/08 01:49:42;;;;;;;17.05;7.90;;;;;;;-3.45;100.00;102237.78;5070955;28;20042;-73
2022/03/08 01:52:09;;;;;;;11.98;7.15;;;;;;;-3.47;100.00;102234.34;5087809;28;20138;-73
2022/03/08 01:54:34;;;;;;;17.38;7.10;;;;;;;-3.56;100.00;102218.91;5089088;28;20031;-73
2022/03/08 01:57:00;;;;;;;14.32;6.78;;;;;;;-3.58;100.00;102222.44;5071174;28;20039;-73
2022/03/08 01:59:25;;;;;;;14.05;7.35;;;;;;;-3.58;100.00;102220.72;5070755;28;20032;-73
2022/03/08 02:01:51;;;;;;;12.63;7.57;;;;;;;-3.60;100.00;102219.88;5089026;28;20024;-73
2022/03/08 02:04:16;;;;;;;18.73;7.93;;;;;;;-3.68;100.00;102213.97;5088941;28;20871;-73
2022/03/08 02:06:44;;;;;;;17.95;8.90;;;;;;;-3.62;100.00;102230.34;5088689;28;20038;-73
2022/03/08 02:09:10;;;;;;;16.80;7.97;;;;;;;-3.63;100.00;102239.09;5087319;28;20431;-73
2022/03/08 02:11:36;;;;;;;12.48;6.90;;;;;;;-3.68;100.00;102229.63;5054158;28;20024;-73
2022/03/08 02:14:02;;;;;;;11.65;5.75;;;;;;;-3.76;100.00;102231.56;5053945;28;20047;-73
2022/03/08 02:16:27;;;;;;;;;;;;;;;-3.75;100.00;102235.88;5071268;28;20485;-73
2022/03/08 02:18:52;;;;;;;11.18;6.65;;;;;;;-3.77;100.00;102229.84;5070268;28;19915;-73
2022/03/08 02:21:18;;;;;;;14.90;8.32;;;;;;;-3.79;100.00;102226.41;5088358;28;20115;-73
2022/03/08 02:23:43;;;;;;;11.23;6.18;;;;;;;-3.73;100.00;102232.34;5050925;28;20015;-73
2022/03/08 02:26:09;;;;;;;15.88;6.35;;;;;;;-3.68;100.00;102235.72;5070495;28;20036;-73
2022/03/08 02:28:34;;;;;;;10.82;7.07;;;;;;;-3.73;100.00;102239.31;5070062;28;20044;-73
2022/03/08 02:31:00;;;;;;;14.07;7.63;;;;;;;-3.75;100.00;102238.50;5088483;28;20097;-73
2022/03/08 02:33:25;;;;;;;11.65;6.10;;;;;;;-3.80;100.00;102242.97;5088498;28;20036;-74
2022/03/08 02:35:51;;;;;;;14.77;6.70;;;;;;;-3.87;100.00;102237.00;5069860;28;20119;-73
2022/03/08 02:38:16;;;;;;;15.65;6.25;;;;;;;-3.88;100.00;102230.94;5070233;28;20044;-73
2022/03/08 02:40:43;;;;;;;13.15;6.88;;;;;;;-3.94;100.00;102236.28;5069623;28;20100;-73
2022/03/08 02:43:11;;;;;;;11.20;6.40;;;;;;;-3.93;100.00;102230.19;5069686;28;20035;-73
2022/03/08 02:45:37;;;;;;;14.73;7.32;;;;;;;-3.94;100.00;102227.59;5069999;28;20027;-73
2022/03/08 02:48:03;;;;;;;14.90;7.25;;;;;;;-3.93;100.00;102227.59;5070072;28;20044;-73
2022/03/08 02:50:28;;;;;;;;;;;;;;;-3.89;100.00;102218.78;5069619;28;20118;-73
2022/03/08 02:52:56;;;;;;;13.43;7.28;;;;;;;-3.90;100.00;102213.59;5069857;28;20325;-73
2022/03/08 02:55:23;;;;;;;11.82;6.88;;;;;;;-3.90;100.00;102213.59;5069761;28;20115;-73
2022/03/08 02:57:49;;;;;;;14.23;7.18;;;;;;;-3.97;100.00;102207.66;5087978;28;20036;-73
2022/03/08 03:00:16;;;;;;;;;;;;;;;-3.88;100.00;102207.47;5087998;28;20044;-73
2022/03/08 03:02:41;;;;;;;14.15;8.02;;;;;;;-3.86;100.00;102213.50;5069539;28;19916;-73
2022/03/08 03:05:08;;;;;;;13.85;7.05;;;;;;;-3.95;100.00;102199.81;5069344;28;20195;-73
2022/03/08 03:07:33;;;;;;;13.20;7.00;;;;;;;-4.00;100.00;102199.91;5087926;28;20035;-73
2022/03/08 03:09:59;;;;;;;16.13;7.53;;;;;;;-4.07;100.00;102200.94;5087553;28;20206;-73
2022/03/08 03:12:25;;;;;;;20.75;10.30;;;;;;;-4.04;100.00;102208.69;5087539;28;20107;-73
2022/03/08 03:14:50;;;;;;;14.73;8.38;;;;;;;-4.00;100.00;102218.16;5087542;28;20469;-73
2022/03/08 03:17:19;;;;;;;14.98;8.40;;;;;;;-4.10;100.00;102216.63;5069407;28;20127;-73
2022/03/08 03:19:44;;;;;;;13.80;7.50;;;;;;;-4.18;100.00;102219.41;5086951;28;20115;-73
2022/03/08 03:22:10;;;;;;;13.50;8.05;;;;;;;-4.22;100.00;102228.19;5052552;28;20119;-73
2022/03/08 03:24:35;;;;;;;22.50;10.30;;;;;;;-4.25;100.00;102226.50;5087458;28;20219;-73
2022/03/08 03:27:01;;;;;;;19.42;9.73;;;;;;;-4.23;100.00;102226.47;5086251;28;20059;-73
2022/03/08 03:29:26;;;;;;;44.78;17.10;;;;;;;-4.22;100.00;102232.53;5069199;28;20027;-73
2022/03/08 03:31:51;;;;;;;41.40;15.25;;;;;;;-4.22;100.00;102245.59;5052552;28;20425;-73
2022/03/08 03:34:17;;;;;;;35.67;14.35;;;;;;;-4.27;100.00;102245.69;5086913;28;20039;-73
2022/03/08 03:36:42;;;;;;;22.80;10.52;;;;;;;-4.27;100.00;102233.50;5069178;28;20123;-73
2022/03/08 03:39:07;;;;;;;23.63;9.93;;;;;;;-4.20;100.00;102239.44;5068747;28;20065;-73
2022/03/08 03:41:33;;;;;;;28.15;11.25;;;;;;;-4.23;100.00;102236.06;5068695;28;20086;-73
2022/03/08 03:43:58;;;;;;;19.75;10.00;;;;;;;-4.22;100.00;102237.75;5052256;28;20028;-74
2022/03/08 03:46:24;;;;;;;20.25;10.55;;;;;;;-4.22;100.00;102235.16;5068645;28;20032;-73
2022/03/08 03:48:49;;;;;;;20.88;9.13;;;;;;;-4.29;100.00;102232.66;5068440;28;20093;-73
2022/03/08 03:51:16;;;;;;;21.98;8.90;;;;;;;-4.33;100.00;102231.03;5052026;28;20527;-73
2022/03/08 03:53:44;;;;;;;18.63;9.18;;;;;;;-4.29;100.00;102245.69;5067786;28;20233;-74
2022/03/08 03:56:10;;;;;;;20.00;9.55;;;;;;;-4.23;100.00;102251.69;5068685;28;20067;-73
2022/03/08 03:58:36;;;;;;;16.15;9.48;;;;;;;-4.17;100.00;102256.78;5068077;28;20066;-73
2022/03/08 04:01:01;;;;;;;14.80;8.20;;;;;;;-4.20;100.00;102256.84;5068709;28;20036;-73
2022/03/08 04:03:26;;;;;;;18.27;9.82;;;;;;;-4.27;100.00;102245.69;5087053;28;20036;-73
2022/03/08 04:05:52;;;;;;;15.27;8.77;;;;;;;-4.17;100.00;102248.94;5085706;28;20047;-73
2022/03/08 04:08:20;;;;;;;21.10;8.75;;;;;;;-4.16;100.00;102261.97;5068869;28;20083;-74
2022/03/08 04:10:48;;;;;;;16.10;8.77;;;;;;;-4.27;100.00;102262.16;5086674;28;20528;-73
2022/03/08 04:13:14;;;;;;;17.58;7.60;;;;;;;-4.29;100.00;102263.94;5069386;28;20043;-74
2022/03/08 04:15:39;;;;;;;;;;;;;;;-4.32;100.00;102269.22;5069101;28;20028;-74
2022/03/08 04:18:05;;;;;;;16.30;7.50;;;;;;;-4.38;100.00;102271.94;5086649;28;19942;-76
2022/03/08 04:20:30;;;;;;;17.35;8.25;;;;;;;-4.41;100.00;102263.34;5052013;28;20081;-73
2022/03/08 04:22:56;;;;;;;13.57;7.18;;;;;;;-4.41;100.00;102263.34;5068855;28;20036;-74
2022/03/08 04:25:21;;;;;;;14.88;8.15;;;;;;;-4.39;100.00;102257.22;5068730;28;20044;-73
2022/03/08 04:27:47;;;;;;;15.10;8.38;;;;;;;-4.42;100.00;102274.69;5086802;28;20442;-73
2022/03/08 04:30:12;;;;;;;16.52;8.30;;;;;;;-4.43;100.00;102260.75;5086762;28;20040;-76
2022/03/08 04:32:38;;;;;;;13.98;7.75;;;;;;;-4.46;100.00;102243.41;5068514;28;20035;-73
2022/03/08 04:35:05;;;;;;;13.60;7.53;;;;;;;-4.35;100.00;102264.09;5068687;28;20024;-73
2022/03/08 04:37:30;;;;;;;13.55;6.80;;;;;;;-4.36;100.00;102259.75;5051908;28;20061;-73
2022/03/08 04:39:56;;;;;;;13.80;7.72;;;;;;;-4.36;100.00;102267.56;5068165;28;20036;-73
2022/03/08 04:42:21;;;;;;;34.20;13.40;;;;;;;-4.43;100.00;102260.75;5068482;28;20032;-73
2022/03/08 04:44:47;;;;;;;12.38;7.75;;;;;;;-4.42;100.00;102257.28;5085409;28;20075;-76
2022/03/08 04:47:12;;;;;;;20.13;9.07;;;;;;;-4.36;100.00;102269.31;5068400;28;20043;-76
2022/03/08 04:49:37;;;;;;;18.55;7.70;;;;;;;-4.44;100.00;102264.25;5068137;28;20038;-73
2022/03/08 04:52:03;;;;;;;14.02;7.88;;;;;;;-4.40;100.00;102270.25;5051962;28;20453;-75
2022/03/08 04:54:28;;;;;;;20.05;10.23;;;;;;;-4.44;100.00;102266.88;5086370;28;20036;-73
2022/03/08 04:56:54;;;;;;;25.48;11.45;;;;;;;-4.40;100.00;102278.97;5086915;28;20024;-73
2022/03/08 04:59:20;;;;;;;;;;;;;;;-4.34;100.00;102289.25;5068486;28;20032;-73
2022/03/08 05:01:45;;;;;;;17.98;7.90;;;;;;;-4.40;100.00;102291.13;5068180;28;20065;-74
2022/03/08 05:04:11;;;;;;;14.50;8.30;;;;;;;-4.53;100.00;102290.50;5068304;28;20040;-73
2022/03/08 05:06:36;;;;;;;21.60;8.48;;;;;;;-4.52;100.00;102294.81;5085961;28;20028;-73
2022/03/08 05:09:02;;;;;;;13.65;7.47;;;;;;;-4.55;100.00;102294.88;5067857;28;20568;-74
2022/03/08 05:11:27;;;;;;;;;;;;;;;-4.60;100.00;102294.09;5068322;28;20119;-75
2022/03/08 05:13:53;;;;;;;15.73;7.53;;;;;;;-4.63;100.00;102292.41;5085589;28;20456;-73
2022/03/08 05:16:18;;;;;;;17.83;10.18;;;;;;;-4.55;100.00;102294.88;5067458;28;20074;-73
2022/03/08 05:18:44;;;;;;;17.92;8.60;;;;;;;-4.48;100.00;102299.09;5050444;28;20039;-73
2022/03/08 05:21:09;;;;;;;15.48;7.82;;;;;;;-4.60;100.00;102301.94;5085179;28;20032;-73
2022/03/08 05:23:34;;;;;;;15.57;8.10;;;;;;;-4.65;100.00;102298.53;5059919;28;20032;-73
2022/03/08 05:26:00;;;;;;;17.17;8.27;;;;;;;-4.66;100.00;102289.84;5085989;28;20024;-73
2022/03/08 05:28:25;;;;;;;15.80;9.23;;;;;;;-4.63;100.00;102294.19;5068081;28;20050;-74
2022/03/08 05:30:51;;;;;;;13.85;7.43;;;;;;;-4.52;100.00;102297.41;5067456;28;20030;-74
2022/03/08 05:33:16;;;;;;;16.75;7.55;;;;;;;-4.55;100.00;102298.34;5068140;28;20874;-73
2022/03/08 05:35:42;;;;;;;16.65;8.73;;;;;;;-4.55;100.00;102302.69;5067923;28;20106;-73
2022/03/08 05:38:07;;;;;;;13.00;8.57;;;;;;;-4.64;100.00;102298.50;5068218;28;20119;-73
2022/03/08 05:40:33;;;;;;;22.15;9.88;;;;;;;-4.68;100.00;102291.66;5085441;28;20063;-74
2022/03/08 05:43:00;;;;;;;24.45;10.30;;;;;;;-4.67;100.00;102294.22;5066928;28;20082;-73
2022/03/08 05:45:26;;;;;;;16.30;7.60;;;;;;;-4.64;100.00;102287.22;5066719;28;20043;-72
2022/03/08 05:47:51;;;;;;;12.35;7.78;;;;;;;-4.61;100.00;102287.16;5084352;28;20036;-73
2022/03/08 05:50:16;;;;;;;14.98;8.48;;;;;;;-4.57;100.00;102286.22;5067432;28;20051;-73
2022/03/08 05:52:42;;;;;;;15.77;8.05;;;;;;;-4.49;100.00;102293.03;5067935;28;20028;-74
2022/03/08 05:55:08;;;;;;;13.80;7.45;;;;;;;-4.54;100.00;102288.75;5085849;28;20032;-74
2022/03/08 05:57:33;;;;;;;14.15;7.60;;;;;;;-4.60;100.00;102281.06;5068140;28;20051;-75
2022/03/08 05:59:59;;;;;;;12.45;6.43;;;;;;;-4.55;100.00;102287.06;5085350;28;20051;-74
2022/03/08 06:02:25;;;;;;;12.85;6.47;;;;;;;-4.53;100.00;102286.13;5085847;28;20051;-73
2022/03/08 06:04:51;;;;;;;15.35;6.97;;;;;;;-4.50;100.00;102285.22;5085776;28;20036;-73
2022/03/08 06:07:16;;;;;;;13.73;7.72;;;;;;;-4.46;100.00;102274.72;5068102;28;20037;-73
2022/03/08 06:09:41;;;;;;;12.70;5.88;;;;;;;-4.48;100.00;102273.88;5067779;28;20047;-74
2022/03/08 06:12:07;;;;;;;13.20;7.47;;;;;;;-4.41;100.00;102279.84;5067931;28;20035;-75
2022/03/08 06:14:33;;;;;;;14.13;7.88;;;;;;;-4.29;100.00;102284.81;5051177;28;20103;-73
2022/03/08 06:16:58;;;;;;;13.73;7.28;;;;;;;-4.30;100.00;102284.88;5068596;28;20075;-74
2022/03/08 06:19:24;;;;;;;13.10;7.72;;;;;;;-4.34;100.00;102281.44;5071676;28;20051;-73
2022/03/08 06:21:50;;;;;;;14.65;8.40;;;;;;;-4.26;100.00;102282.16;5089575;28;20025;-73
2022/03/08 06:24:16;;;;;;;14.82;8.13;;;;;;;-4.18;100.00;102288.97;5071395;28;20040;-73
2022/03/08 06:26:42;;;;;;;16.15;7.20;;;;;;;-4.20;100.00;102283.78;5071403;28;20086;-76
2022/03/08 06:29:08;;;;;;;13.68;7.40;;;;;;;-4.19;100.00;102289.84;5054389;28;20028;-74
2022/03/08 06:31:33;;;;;;;13.15;7.43;;;;;;;-4.06;100.00;102291.34;5071448;28;20524;-75
2022/03/08 06:33:59;;;;;;;15.55;9.15;;;;;;;-3.90;100.00;102297.97;5071704;28;20032;-73
2022/03/08 06:36:24;;;;;;;14.27;6.55;;;;;;;-3.89;100.00;102309.25;5071158;28;20020;-73
2022/03/08 06:38:49;;;;;;;19.95;8.20;;;;;;;-3.86;100.00;102302.22;5089126;28;20032;-73
2022/03/08 06:41:15;;;;;;;12.75;6.72;;;;;;;-3.84;100.00;102292.63;5089209;28;20028;-74
2022/03/08 06:43:40;;;;;;;12.95;6.68;;;;;;;-3.69;100.00;102295.81;5054566;28;20146;-73
2022/03/08 06:46:06;;;;;;;17.90;8.23;;;;;;;-3.00;100.00;102308.16;5070926;28;20569;-73
2022/03/08 06:48:31;;;;;;;21.35;9.93;;;;;;;-2.40;100.00;102300.53;5070839;28;20044;-73
2022/03/08 06:50:57;;;;;;;16.55;8.73;;;;;;;-1.86;100.00;102306.88;5088876;28;20055;-75
2022/03/08 06:53:22;;;;;;;19.45;9.32;;;;;;;-1.60;100.00;102300.88;5054755;28;20411;-74
2022/03/08 06:55:48;;;;;;;17.50;7.60;;;;;;;-1.60;100.00;102293.00;5071133;28;20043;-74
2022/03/08 06:58:13;;;;;;;14.83;7.67;;;;;;;-1.83;100.00;102278.84;5089287;28;20027;-74
2022/03/08 07:00:38;;;;;;;16.33;8.70;;;;;;;-1.59;100.00;102289.47;5070857;28;20496;-74
2022/03/08 07:03:04;;;;;;;14.25;8.48;;;;;;;-1.06;100.00;102289.56;5054372;28;20063;-74
2022/03/08 07:05:29;;;;;;;28.60;11.97;;;;;;;-0.59;100.00;102289.75;5070792;28;20031;-74
2022/03/08 07:07:55;;;;;;;18.95;9.15;;;;;;;0.08;100.00;102290.88;5070661;28;20034;-74
2022/03/08 07:10:20;;;;;;;22.23;9.48;;;;;;;0.58;100.00;102295.97;5070217;28;20484;-74
2022/03/08 07:12:47;;;;;;;13.48;8.73;;;;;;;0.93;100.00;102288.44;5053550;28;20040;-75
2022/03/08 07:15:14;;;;;;;17.58;7.90;;;;;;;1.32;100.00;102285.94;5086899;28;20123;-75
2022/03/08 07:17:44;;;;;;;13.35;7.40;;;;;;;1.61;100.00;102266.25;5053390;28;20032;-75
2022/03/08 07:20:10;;;;;;;13.70;7.93;;;;;;;1.96;100.00;102250.66;5069742;28;20089;-75
2022/03/08 07:22:36;;;;;;;10.52;6.80;;;;;;;2.21;100.00;102229.28;5087351;28;20374;-74
2022/03/08 07:25:02;;;;;;;17.48;8.15;;;;;;;1.86;98.56;102183.53;5087566;28;20440;-74
2022/03/08 07:27:27;;;;;;;14.73;7.63;;;;;;;2.05;96.78;102171.19;5087171;28;20040;-75
2022/03/08 07:29:53;;;;;;;15.57;8.03;;;;;;;2.67;94.06;102162.94;5066888;28;20024;-74
2022/03/08 07:32:19;;;;;;;13.80;8.07;;;;;;;3.01;90.91;102129.56;5067298;28;20024;-75
2022/03/08 07:34:44;;;;;;;;;;;;;;;3.15;87.48;102090.13;5069186;28;20019;-74
2022/03/08 07:37:09;;;;;;;;;;;;;;;3.46;85.26;102056.78;5086541;28;19912;-74
2022/03/08 07:39:35;;;;;;;18.43;8.23;;;;;;;3.78;82.23;102004.81;5067460;28;20430;-74
2022/03/08 07:42:00;;;;;;;17.23;5.87;;;;;;;3.77;79.23;101921.22;5066767;28;20032;-74
2022/03/08 07:44:25;;;;;;;16.93;6.33;;;;;;;3.93;77.78;101907.94;5085013;28;20127;-74
2022/03/08 07:46:51;;;;;;;17.40;6.10;;;;;;;4.81;76.43;101927.25;5050254;28;20036;-74
2022/03/08 07:49:16;;;;;;;12.83;6.30;;;;;;;5.49;73.38;101855.75;5085461;28;20418;-74
2022/03/08 07:51:42;;;;;;;87.43;14.57;;;;;;;5.89;70.05;101762.09;5051477;28;20089;-74
2022/03/08 07:54:08;;;;;;;138.48;17.30;;;;;;;6.15;67.73;101701.97;5068577;28;20042;-74
2022/03/08 07:56:33;;;;;;;118.30;17.40;;;;;;;6.50;65.74;101651.63;5068701;28;20028;-74
2022/03/08 07:58:59;;;;;;;10.23;4.90;;;;;;;6.87;63.00;101577.22;5068345;28;20043;-74
2022/03/08 08:01:24;;;;;;;91.60;15.55;;;;;;;6.76;61.48;101510.84;5086569;28;20032;-74
2022/03/08 08:03:49;;;;;;;22.20;6.20;;;;;;;7.32;60.49;101541.88;5086469;28;20034;-74
2022/03/08 08:06:15;;;;;;;272.87;40.37;;;;;;;7.03;59.39;101445.94;5068686;28;20036;-74
2022/03/08 08:08:40;;;;;;;398.20;64.53;;;;;;;7.72;58.74;101517.41;5068004;28;20036;-74
2022/03/08 08:11:05;;;;;;;37.90;7.73;;;;;;;7.71;57.73;101425.34;5068116;28;20139;-74
2022/03/08 08:13:31;;;;;;;48.43;9.03;;;;;;;7.88;56.91;101459.34;5067930;28;20047;-74
2022/03/08 08:15:56;;;;;;;135.50;19.10;;;;;;;8.49;56.25;101455.16;5086436;28;20459;-73
2022/03/08 08:18:21;;;;;;;14.10;4.50;;;;;;;8.51;54.44;101357.41;5068546;28;20485;-75
2022/03/08 08:20:47;;;;;;;240.77;32.03;;;;;;;8.53;53.03;101286.28;5086589;28;20036;-75
2022/03/08 08:23:13;;;;;;;7.05;3.10;;;;;;;9.08;52.34;101321.25;5086172;28;20068;-74
2022/03/08 08:25:38;;;;;;;5.80;2.63;;;;;;;9.79;49.22;101197.47;5068000;28;20112;-74
2022/03/08 08:28:06;;;;;;;5.87;2.90;;;;;;;8.94;49.36;101072.16;5067965;28;20043;-75
2022/03/08 08:30:32;;;;;;;8.45;2.75;;;;;;;9.27;49.26;101161.41;5067542;28;20278;-74
2022/03/08 08:32:57;;;;;;;6.88;3.72;;;;;;;9.94;48.91;101220.81;5086220;28;20024;-75
2022/03/08 08:35:22;;;;;;;7.23;3.23;;;;;;;10.84;47.48;101220.16;5067848;28;20050;-74
2022/03/08 08:37:48;;;;;;;6.30;3.17;;;;;;;11.36;45.36;101130.22;5067794;28;20039;-73
2022/03/08 08:40:13;;;;;;;5.30;3.20;;;;;;;11.16;43.07;100904.28;5050706;28;20384;-74
2022/03/08 08:42:38;;;;;;;5.40;2.50;;;;;;;10.66;42.04;100747.56;5067549;28;20043;-73
2022/03/08 08:45:05;;;;;;;6.73;2.60;;;;;;;10.34;42.46;100746.44;5085781;28;20094;-73
2022/03/08 08:47:30;;;;;;;4.25;2.50;;;;;;;10.36;42.77;100840.53;5051297;28;20035;-73
2022/03/08 08:49:56;;;;;;;6.03;2.23;;;;;;;10.38;42.04;100779.00;5067522;28;20040;-74
2022/03/08 08:52:21;;;;;;;3.55;1.67;;;;;;;10.63;40.97;100743.41;5067561;28;20040;-73
2022/03/08 08:54:47;;;;;;;6.40;1.47;;;;;;;10.09;39.70;100558.75;5085597;28;20032;-74
2022/03/08 08:57:14;;;;;;;3.90;2.03;;;;;;;9.56;40.01;100486.13;5067509;28;20071;-74
2022/03/08 08:59:39;;;;;;;3.63;1.80;;;;;;;10.31;40.11;100678.22;5050282;28;20043;-73
2022/03/08 09:02:05;;;;;;;2.47;1.33;;;;;;;10.24;38.89;100494.91;5085650;28;20016;-73
2022/03/08 09:04:30;;;;;;;4.70;2.07;;;;;;;9.71;39.72;100572.47;5084315;28;20051;-73
2022/03/08 09:06:56;;;;;;;1.80;1.40;;;;;;;9.51;40.26;100581.75;5085809;28;20278;-73
2022/03/08 09:09:21;;;;;;;4.20;1.87;;;;;;;9.13;40.41;100522.63;5067325;28;20274;-73
2022/03/08 09:11:46;;;;;;;2.87;1.53;;;;;;;10.12;40.20;100719.31;5085207;28;20457;-74
2022/03/08 09:14:12;;;;;;;1.87;1.40;;;;;;;10.27;38.82;100587.97;5085607;28;20028;-74
2022/03/08 09:16:37;;;;;;;2.92;1.65;;;;;;;9.87;38.82;100521.03;5067431;28;20484;-73
2022/03/08 09:19:03;;;;;;;6.43;2.17;;;;;;;9.20;38.92;100377.16;5050668;28;20257;-74
2022/03/08 09:21:29;;;;;;;4.97;2.15;;;;;;;9.90;39.67;100647.88;5050450;28;20551;-74
2022/03/08 09:23:54;;;;;;;3.05;2.17;;;;;;;9.94;39.51;100657.22;5085884;28;20036;-73
2022/03/08 09:26:20;;;;;;;5.93;2.43;;;;;;;9.64;39.76;100563.44;5067506;28;20077;-73
2022/03/08 09:28:45;;;;;;;2.53;1.87;;;;;;;9.24;39.91;100489.50;5067326;28;20028;-73
2022/03/08 09:31:12;;;;;;;5.87;2.40;;;;;;;9.02;40.29;100528.19;5084172;28;20051;-73
2022/03/08 09:33:38;;;;;;;5.13;2.38;;;;;;;9.10;40.67;100608.13;5085574;28;20031;-73
2022/03/08 09:36:03;;;;;;;4.47;2.37;;;;;;;9.88;40.51;100748.53;5067677;28;20048;-73
2022/03/08 09:38:29;;;;;;;9.20;3.28;;;;;;;9.59;39.81;100581.75;5067385;28;20274;-73
2022/03/08 09:40:54;;;;;;;5.00;2.57;;;;;;;9.21;40.46;100575.91;5067152;28;20051;-73
2022/03/08 09:43:20;;;;;;;2.77;1.90;;;;;;;8.87;40.83;100539.44;5086018;28;20055;-72
2022/03/08 09:45:46;;;;;;;2.67;1.90;;;;;;;8.97;40.65;100605.91;5050380;28;20792;-72
2022/03/08 09:48:11;;;;;;;4.45;1.75;;;;;;;8.96;40.94;100628.16;5067408;28;20050;-72
2022/03/08 09:50:37;;;;;;;4.63;1.80;;;;;;;9.39;40.29;100649.59;5067214;28;20493;-74
2022/03/08 09:53:03;;;;;;;5.05;1.88;;;;;;;8.95;40.44;100549.28;5069249;28;20040;-72
2022/03/08 09:55:29;;;;;;;2.63;1.73;;;;;;;9.95;39.67;100709.59;5070634;28;20429;-72
2022/03/08 09:57:55;;;;;;;4.73;2.17;;;;;;;10.17;38.69;100582.78;5088385;28;20042;-72
2022/03/08 10:00:23;;;;;;;4.82;2.13;;;;;;;10.43;39.37;100717.97;5054450;28;20036;-72
2022/03/08 10:02:52;;;;;;;3.15;1.80;;;;;;;10.20;38.39;100533.59;5089038;28;20032;-73
2022/03/08 10:05:39;;;;;;;3.90;1.80;;;;;;;10.97;37.50;100596.34;5069660;28;20028;-73
2022/03/08 10:08:19;;;;;;;3.35;1.55;;;;;;;12.14;36.37;100692.16;5066890;28;20032;-73
2022/03/08 10:10:47;;;;;;;3.30;1.80;;;;;;;12.66;36.06;100684.34;5086355;28;20496;-73
2022/03/08 10:13:12;;;;;;;3.00;2.40;;;;;;;11.61;35.57;100370.91;5083983;28;20034;-73
2022/03/08 10:15:39;;;;;;;5.75;1.65;;;;;;;12.41;35.76;100605.19;5070220;28;20032;-73
2022/03/08 10:18:05;;;;;;;3.35;1.83;;;;;;;12.96;34.67;100587.16;5087333;28;20048;-73
2022/03/08 10:20:32;;;;;;;3.42;2.35;;;;;;;13.42;35.12;100667.53;5086981;28;20542;-73
2022/03/08 10:22:59;;;;;;;4.15;2.00;;;;;;;13.39;34.68;100609.72;5088169;28;20149;-73
2022/03/08 10:25:28;;;;;;;2.95;1.98;;;;;;;13.96;33.85;100615.44;5103828;28;20078;-73
2022/03/08 10:27:53;;;;;;;3.45;2.10;;;;;;;13.66;34.51;100580.56;5087042;28;20043;-73
2022/03/08 10:30:19;;;;;;;3.63;2.20;;;;;;;13.98;33.90;100590.06;5088616;28;20032;-73
2022/03/08 10:32:46;;;;;;;3.08;2.00;;;;;;;14.43;33.41;100598.81;5070077;28;20078;-73
2022/03/08 10:35:21;;;;;;;3.10;1.73;;;;;;;14.44;32.76;100548.59;5086749;28;20822;-74
2022/03/08 10:37:47;;;;;;;3.80;2.00;;;;;;;14.96;33.02;100617.28;5050208;28;20468;-74
2022/03/08 10:40:13;;;;;;;1.70;1.37;;;;;;;13.82;32.00;100295.13;5066933;28;20090;-74
2022/03/08 10:42:40;;;;;;;3.58;1.73;;;;;;;12.76;32.83;100231.41;5050163;28;20036;-73
2022/03/08 10:45:09;;;;;;;4.47;2.05;;;;;;;13.19;34.75;100530.81;5068033;28;20077;-73
2022/03/08 10:47:52;;;;;;;4.82;2.45;;;;;;;13.76;34.87;100693.78;5067719;28;20079;-74
2022/03/08 10:50:19;;;;;;;2.55;2.00;;;;;;;13.89;33.56;100524.91;5067840;28;20041;-74
2022/03/08 10:52:46;;;;;;;3.08;1.88;;;;;;;12.92;32.53;100242.91;5049751;28;20036;-74
2022/03/08 10:55:30;;;;;;;2.85;1.75;;;;;;;12.80;33.54;100381.88;5067305;28;20036;-73
2022/03/08 10:58:03;;;;;;;4.00;2.33;;;;;;;13.85;34.16;100640.88;5049639;28;20040;-74
2022/03/08 11:00:31;;;;;;;4.00;2.05;;;;;;;14.04;33.14;100521.34;5049775;28;20083;-73
2022/03/08 11:03:02;;;;;;;5.13;1.98;;;;;;;14.28;32.01;100444.94;5067194;28;20035;-74
2022/03/08 11:05:48;;;;;;;4.53;2.35;;;;;;;14.47;32.09;100489.09;5032901;28;20131;-74
2022/03/08 11:08:15;;;;;;;3.95;2.35;;;;;;;14.40;32.00;100456.00;5050134;28;20064;-73
2022/03/08 11:10:41;;;;;;;3.97;1.80;;;;;;;14.58;31.86;100440.25;5067706;28;20032;-73
2022/03/08 11:13:07;;;;;;;;;;;;;;;14.76;32.32;100548.06;5050325;28;20032;-74